sensor_id;sensor_type;location;lat;lon;timestamp;P1;durP1;ratioP1;P2;durP2;ratioP2
41255;SDS011;26989;45.524;10.938;2023-05-27T00:00:49;16.98;;;11.27;;
41255;SDS011;26989;45.524;10.938;2023-05-27T00:03:16;13.82;;;10.52;;
41255;SDS011;26989;45.524;10.938;2023-05-27T00:05:44;13.30;;;10.63;;
41255;SDS011;26989;45.524;10.938;2023-05-27T00:08:11;13.35;;;10.45;;
41255;SDS011;26989;45.524;10.938;2023-05-27T00:10:38;14.63;;;10.55;;
41255;SDS011;26989;45.524;10.938;2023-05-27T00:13:08;17.40;;;11.20;;
41255;SDS011;26989;45.524;10.938;2023-05-27T00:15:35;12.88;;;10.20;;
41255;SDS011;26989;45.524;10.938;2023-05-27T00:18:01;17.30;;;11.45;;
41255;SDS011;26989;45.524;10.938;2023-05-27T00:20:29;14.88;;;11.10;;
41255;SDS011;26989;45.524;10.938;2023-05-27T00:22:57;17.10;;;11.57;;
41255;SDS011;26989;45.524;10.938;2023-05-27T00:25:26;18.67;;;11.82;;
41255;SDS011;26989;45.524;10.938;2023-05-27T00:27:54;15.50;;;13.73;;
41255;SDS011;26989;45.524;10.938;2023-05-27T00:30:22;14.30;;;12.25;;
41255;SDS011;26989;45.524;10.938;2023-05-27T00:32:48;13.57;;;11.80;;
41255;SDS011;26989;45.524;10.938;2023-05-27T00:35:15;16.55;;;10.85;;
41255;SDS011;26989;45.524;10.938;2023-05-27T00:37:42;10.77;;;9.02;;
41255;SDS011;26989;45.524;10.938;2023-05-27T00:40:10;13.85;;;9.48;;
41255;SDS011;26989;45.524;10.938;2023-05-27T00:42:38;14.05;;;9.85;;
41255;SDS011;26989;45.524;10.938;2023-05-27T00:45:05;12.43;;;7.72;;
41255;SDS011;26989;45.524;10.938;2023-05-27T00:47:32;13.18;;;9.20;;
41255;SDS011;26989;45.524;10.938;2023-05-27T00:50:00;10.90;;;9.05;;
41255;SDS011;26989;45.524;10.938;2023-05-27T00:52:29;9.38;;;8.38;;
41255;SDS011;26989;45.524;10.938;2023-05-27T00:54:57;9.55;;;8.55;;
41255;SDS011;26989;45.524;10.938;2023-05-27T00:57:25;11.73;;;8.43;;
41255;SDS011;26989;45.524;10.938;2023-05-27T00:59:53;13.73;;;9.18;;
41255;SDS011;26989;45.524;10.938;2023-05-27T01:02:19;14.52;;;9.50;;
41255;SDS011;26989;45.524;10.938;2023-05-27T01:04:46;13.77;;;9.75;;
41255;SDS011;26989;45.524;10.938;2023-05-27T01:07:16;12.07;;;8.90;;
41255;SDS011;26989;45.524;10.938;2023-05-27T01:10:10;13.43;;;8.30;;
41255;SDS011;26989;45.524;10.938;2023-05-27T01:15:21;8.75;;;7.35;;
41255;SDS011;26989;45.524;10.938;2023-05-27T01:17:50;8.23;;;6.40;;
41255;SDS011;26989;45.524;10.938;2023-05-27T01:20:21;7.95;;;6.70;;
41255;SDS011;26989;45.524;10.938;2023-05-27T01:22:49;8.93;;;7.13;;
41255;SDS011;26989;45.524;10.938;2023-05-27T01:25:18;9.15;;;8.20;;
41255;SDS011;26989;45.524;10.938;2023-05-27T01:27:46;8.10;;;7.25;;
41255;SDS011;26989;45.524;10.938;2023-05-27T01:30:13;7.20;;;6.50;;
41255;SDS011;26989;45.524;10.938;2023-05-27T01:35:31;6.13;;;4.93;;
41255;SDS011;26989;45.524;10.938;2023-05-27T01:38:09;4.35;;;3.95;;
41255;SDS011;26989;45.524;10.938;2023-05-27T01:40:39;4.63;;;4.07;;
41255;SDS011;26989;45.524;10.938;2023-05-27T01:43:07;5.15;;;3.28;;
41255;SDS011;26989;45.524;10.938;2023-05-27T01:45:35;4.40;;;3.40;;
41255;SDS011;26989;45.524;10.938;2023-05-27T01:48:03;4.53;;;2.80;;
41255;SDS011;26989;45.524;10.938;2023-05-27T01:50:30;4.47;;;2.72;;
41255;SDS011;26989;45.524;10.938;2023-05-27T01:52:59;5.10;;;3.08;;
41255;SDS011;26989;45.524;10.938;2023-05-27T01:55:26;4.93;;;3.40;;
41255;SDS011;26989;45.524;10.938;2023-05-27T01:57:53;5.40;;;4.75;;
41255;SDS011;26989;45.524;10.938;2023-05-27T02:00:20;3.45;;;3.15;;
41255;SDS011;26989;45.524;10.938;2023-05-27T02:02:47;5.18;;;3.33;;
41255;SDS011;26989;45.524;10.938;2023-05-27T02:05:14;4.03;;;3.53;;
41255;SDS011;26989;45.524;10.938;2023-05-27T02:07:41;3.78;;;2.63;;
41255;SDS011;26989;45.524;10.938;2023-05-27T02:10:08;3.95;;;2.60;;
41255;SDS011;26989;45.524;10.938;2023-05-27T02:12:36;2.40;;;2.20;;
41255;SDS011;26989;45.524;10.938;2023-05-27T02:15:03;3.08;;;2.70;;
41255;SDS011;26989;45.524;10.938;2023-05-27T02:17:30;3.38;;;2.75;;
41255;SDS011;26989;45.524;10.938;2023-05-27T02:19:57;6.65;;;2.90;;
41255;SDS011;26989;45.524;10.938;2023-05-27T02:22:24;7.40;;;3.28;;
41255;SDS011;26989;45.524;10.938;2023-05-27T02:24:51;7.22;;;3.22;;
41255;SDS011;26989;45.524;10.938;2023-05-27T02:27:18;3.58;;;2.83;;
41255;SDS011;26989;45.524;10.938;2023-05-27T02:29:44;5.18;;;3.08;;
41255;SDS011;26989;45.524;10.938;2023-05-27T02:32:11;7.05;;;3.78;;
41255;SDS011;26989;45.524;10.938;2023-05-27T02:34:38;7.72;;;3.72;;
41255;SDS011;26989;45.524;10.938;2023-05-27T02:37:07;5.03;;;3.35;;
41255;SDS011;26989;45.524;10.938;2023-05-27T02:39:34;5.80;;;3.58;;
41255;SDS011;26989;45.524;10.938;2023-05-27T02:42:01;7.88;;;3.83;;
41255;SDS011;26989;45.524;10.938;2023-05-27T02:44:28;9.13;;;7.78;;
41255;SDS011;26989;45.524;10.938;2023-05-27T02:46:56;12.68;;;9.15;;
41255;SDS011;26989;45.524;10.938;2023-05-27T02:49:23;10.80;;;9.60;;
41255;SDS011;26989;45.524;10.938;2023-05-27T02:51:50;12.00;;;7.75;;
41255;SDS011;26989;45.524;10.938;2023-05-27T02:54:17;9.70;;;7.55;;
41255;SDS011;26989;45.524;10.938;2023-05-27T02:56:44;7.88;;;7.07;;
41255;SDS011;26989;45.524;10.938;2023-05-27T02:59:11;9.35;;;7.20;;
41255;SDS011;26989;45.524;10.938;2023-05-27T03:01:38;8.68;;;7.78;;
41255;SDS011;26989;45.524;10.938;2023-05-27T03:04:05;9.68;;;7.45;;
41255;SDS011;26989;45.524;10.938;2023-05-27T03:06:32;9.30;;;7.82;;
41255;SDS011;26989;45.524;10.938;2023-05-27T03:08:59;8.43;;;7.50;;
41255;SDS011;26989;45.524;10.938;2023-05-27T03:11:27;8.75;;;7.03;;
41255;SDS011;26989;45.524;10.938;2023-05-27T03:13:54;8.40;;;7.25;;
41255;SDS011;26989;45.524;10.938;2023-05-27T03:16:20;8.73;;;7.00;;
41255;SDS011;26989;45.524;10.938;2023-05-27T03:18:49;8.88;;;6.45;;
41255;SDS011;26989;45.524;10.938;2023-05-27T03:21:16;7.22;;;5.72;;
41255;SDS011;26989;45.524;10.938;2023-05-27T03:23:43;8.30;;;6.57;;
41255;SDS011;26989;45.524;10.938;2023-05-27T03:26:10;7.60;;;6.05;;
41255;SDS011;26989;45.524;10.938;2023-05-27T03:28:37;9.50;;;5.88;;
41255;SDS011;26989;45.524;10.938;2023-05-27T03:31:03;7.20;;;6.15;;
41255;SDS011;26989;45.524;10.938;2023-05-27T03:33:31;7.40;;;5.97;;
41255;SDS011;26989;45.524;10.938;2023-05-27T03:35:58;10.32;;;6.05;;
41255;SDS011;26989;45.524;10.938;2023-05-27T03:38:25;6.95;;;5.80;;
41255;SDS011;26989;45.524;10.938;2023-05-27T03:40:52;6.72;;;6.07;;
41255;SDS011;26989;45.524;10.938;2023-05-27T03:43:19;5.63;;;4.63;;
41255;SDS011;26989;45.524;10.938;2023-05-27T03:45:46;5.13;;;4.43;;
41255;SDS011;26989;45.524;10.938;2023-05-27T03:48:13;5.43;;;4.47;;
41255;SDS011;26989;45.524;10.938;2023-05-27T03:50:39;5.75;;;4.35;;
41255;SDS011;26989;45.524;10.938;2023-05-27T03:53:08;12.02;;;6.50;;
41255;SDS011;26989;45.524;10.938;2023-05-27T03:55:35;6.82;;;4.63;;
41255;SDS011;26989;45.524;10.938;2023-05-27T03:58:02;7.10;;;4.47;;
41255;SDS011;26989;45.524;10.938;2023-05-27T04:00:30;5.55;;;4.05;;
41255;SDS011;26989;45.524;10.938;2023-05-27T04:02:57;6.05;;;4.28;;
41255;SDS011;26989;45.524;10.938;2023-05-27T04:05:24;4.53;;;4.10;;
41255;SDS011;26989;45.524;10.938;2023-05-27T04:07:51;5.50;;;4.30;;
41255;SDS011;26989;45.524;10.938;2023-05-27T04:10:18;4.80;;;4.13;;
41255;SDS011;26989;45.524;10.938;2023-05-27T04:12:45;6.20;;;4.15;;
41255;SDS011;26989;45.524;10.938;2023-05-27T04:15:12;5.20;;;4.32;;
41255;SDS011;26989;45.524;10.938;2023-05-27T04:17:39;6.50;;;4.43;;
41255;SDS011;26989;45.524;10.938;2023-05-27T04:20:06;8.27;;;5.43;;
41255;SDS011;26989;45.524;10.938;2023-05-27T04:22:40;7.47;;;5.10;;
41255;SDS011;26989;45.524;10.938;2023-05-27T04:25:08;7.80;;;5.10;;
41255;SDS011;26989;45.524;10.938;2023-05-27T04:27:35;6.03;;;5.30;;
41255;SDS011;26989;45.524;10.938;2023-05-27T04:30:06;8.30;;;5.75;;
41255;SDS011;26989;45.524;10.938;2023-05-27T04:32:35;7.80;;;6.00;;
41255;SDS011;26989;45.524;10.938;2023-05-27T04:35:05;7.65;;;6.55;;
41255;SDS011;26989;45.524;10.938;2023-05-27T04:37:36;8.18;;;6.28;;
41255;SDS011;26989;45.524;10.938;2023-05-27T04:40:04;8.75;;;6.05;;
41255;SDS011;26989;45.524;10.938;2023-05-27T04:42:35;8.10;;;6.38;;
41255;SDS011;26989;45.524;10.938;2023-05-27T04:45:05;10.00;;;6.60;;
41255;SDS011;26989;45.524;10.938;2023-05-27T04:47:33;10.27;;;6.88;;
41255;SDS011;26989;45.524;10.938;2023-05-27T04:50:05;8.07;;;6.43;;
41255;SDS011;26989;45.524;10.938;2023-05-27T04:52:33;7.00;;;6.30;;
41255;SDS011;26989;45.524;10.938;2023-05-27T04:55:06;7.80;;;6.15;;
41255;SDS011;26989;45.524;10.938;2023-05-27T05:00:02;6.53;;;5.85;;
41255;SDS011;26989;45.524;10.938;2023-05-27T05:02:30;8.55;;;6.55;;
41255;SDS011;26989;45.524;10.938;2023-05-27T05:05:01;7.75;;;6.38;;
41255;SDS011;26989;45.524;10.938;2023-05-27T05:07:29;8.38;;;6.97;;
41255;SDS011;26989;45.524;10.938;2023-05-27T05:09:56;10.00;;;7.53;;
41255;SDS011;26989;45.524;10.938;2023-05-27T05:12:24;7.85;;;6.32;;
41255;SDS011;26989;45.524;10.938;2023-05-27T05:14:55;10.65;;;6.70;;
41255;SDS011;26989;45.524;10.938;2023-05-27T05:17:22;9.85;;;6.93;;
41255;SDS011;26989;45.524;10.938;2023-05-27T05:19:51;7.45;;;6.40;;
41255;SDS011;26989;45.524;10.938;2023-05-27T05:22:19;6.75;;;5.97;;
41255;SDS011;26989;45.524;10.938;2023-05-27T05:24:47;7.80;;;6.45;;
41255;SDS011;26989;45.524;10.938;2023-05-27T05:27:16;8.80;;;6.95;;
41255;SDS011;26989;45.524;10.938;2023-05-27T05:29:42;10.43;;;6.18;;
41255;SDS011;26989;45.524;10.938;2023-05-27T05:32:10;7.30;;;5.72;;
41255;SDS011;26989;45.524;10.938;2023-05-27T05:34:38;6.95;;;6.25;;
41255;SDS011;26989;45.524;10.938;2023-05-27T05:37:05;6.20;;;5.60;;
41255;SDS011;26989;45.524;10.938;2023-05-27T05:39:32;19.98;;;5.43;;
41255;SDS011;26989;45.524;10.938;2023-05-27T05:41:59;6.78;;;4.45;;
41255;SDS011;26989;45.524;10.938;2023-05-27T05:44:26;5.72;;;3.75;;
41255;SDS011;26989;45.524;10.938;2023-05-27T05:46:53;4.10;;;3.70;;
41255;SDS011;26989;45.524;10.938;2023-05-27T05:49:20;3.60;;;2.60;;
41255;SDS011;26989;45.524;10.938;2023-05-27T05:51:48;5.03;;;3.50;;
41255;SDS011;26989;45.524;10.938;2023-05-27T05:54:15;6.15;;;3.60;;
41255;SDS011;26989;45.524;10.938;2023-05-27T05:56:43;6.43;;;3.65;;
41255;SDS011;26989;45.524;10.938;2023-05-27T05:59:10;4.88;;;4.13;;
41255;SDS011;26989;45.524;10.938;2023-05-27T06:01:36;4.90;;;4.03;;
41255;SDS011;26989;45.524;10.938;2023-05-27T06:04:05;4.78;;;4.35;;
41255;SDS011;26989;45.524;10.938;2023-05-27T06:06:35;6.00;;;4.57;;
41255;SDS011;26989;45.524;10.938;2023-05-27T06:09:02;4.13;;;3.72;;
41255;SDS011;26989;45.524;10.938;2023-05-27T06:11:29;6.68;;;4.60;;
41255;SDS011;26989;45.524;10.938;2023-05-27T06:13:56;5.97;;;5.00;;
41255;SDS011;26989;45.524;10.938;2023-05-27T06:16:23;6.05;;;4.82;;
41255;SDS011;26989;45.524;10.938;2023-05-27T06:18:50;7.45;;;4.40;;
41255;SDS011;26989;45.524;10.938;2023-05-27T06:21:18;3.72;;;3.40;;
41255;SDS011;26989;45.524;10.938;2023-05-27T06:23:45;6.35;;;2.97;;
41255;SDS011;26989;45.524;10.938;2023-05-27T06:26:12;3.63;;;3.20;;
41255;SDS011;26989;45.524;10.938;2023-05-27T06:28:40;3.47;;;2.85;;
41255;SDS011;26989;45.524;10.938;2023-05-27T06:31:06;2.70;;;2.42;;
41255;SDS011;26989;45.524;10.938;2023-05-27T06:33:36;5.70;;;3.03;;
41255;SDS011;26989;45.524;10.938;2023-05-27T06:36:03;4.10;;;3.10;;
41255;SDS011;26989;45.524;10.938;2023-05-27T06:38:30;4.15;;;2.65;;
41255;SDS011;26989;45.524;10.938;2023-05-27T06:40:56;3.42;;;2.80;;
41255;SDS011;26989;45.524;10.938;2023-05-27T06:43:23;6.15;;;3.58;;
41255;SDS011;26989;45.524;10.938;2023-05-27T06:45:50;8.20;;;3.10;;
41255;SDS011;26989;45.524;10.938;2023-05-27T06:48:30;5.30;;;3.55;;
41255;SDS011;26989;45.524;10.938;2023-05-27T06:50:58;6.55;;;3.90;;
41255;SDS011;26989;45.524;10.938;2023-05-27T06:53:27;4.03;;;3.03;;
41255;SDS011;26989;45.524;10.938;2023-05-27T06:55:55;4.60;;;3.00;;
41255;SDS011;26989;45.524;10.938;2023-05-27T06:58:28;8.82;;;3.00;;
41255;SDS011;26989;45.524;10.938;2023-05-27T07:00:55;12.23;;;4.70;;
41255;SDS011;26989;45.524;10.938;2023-05-27T07:03:22;4.70;;;2.75;;
41255;SDS011;26989;45.524;10.938;2023-05-27T07:05:56;6.13;;;2.83;;
41255;SDS011;26989;45.524;10.938;2023-05-27T07:08:39;6.35;;;2.70;;
41255;SDS011;26989;45.524;10.938;2023-05-27T07:11:33;3.13;;;2.50;;
41255;SDS011;26989;45.524;10.938;2023-05-27T07:14:42;3.13;;;2.78;;
41255;SDS011;26989;45.524;10.938;2023-05-27T07:17:31;4.00;;;2.85;;
41255;SDS011;26989;45.524;10.938;2023-05-27T07:20:34;2.92;;;2.33;;
41255;SDS011;26989;45.524;10.938;2023-05-27T07:23:04;3.17;;;2.63;;
41255;SDS011;26989;45.524;10.938;2023-05-27T07:25:31;3.57;;;2.70;;
41255;SDS011;26989;45.524;10.938;2023-05-27T07:27:59;3.10;;;2.60;;
41255;SDS011;26989;45.524;10.938;2023-05-27T07:30:26;15.95;;;4.28;;
41255;SDS011;26989;45.524;10.938;2023-05-27T07:32:53;6.28;;;3.50;;
41255;SDS011;26989;45.524;10.938;2023-05-27T07:35:23;4.60;;;3.13;;
41255;SDS011;26989;45.524;10.938;2023-05-27T07:37:53;4.50;;;3.42;;
41255;SDS011;26989;45.524;10.938;2023-05-27T07:40:20;6.30;;;3.50;;
41255;SDS011;26989;45.524;10.938;2023-05-27T07:42:47;4.10;;;3.47;;
41255;SDS011;26989;45.524;10.938;2023-05-27T07:45:15;6.43;;;3.78;;
41255;SDS011;26989;45.524;10.938;2023-05-27T07:47:42;7.28;;;3.67;;
41255;SDS011;26989;45.524;10.938;2023-05-27T07:52:43;5.18;;;3.35;;
41255;SDS011;26989;45.524;10.938;2023-05-27T07:55:16;4.45;;;3.67;;
41255;SDS011;26989;45.524;10.938;2023-05-27T07:57:46;4.30;;;3.38;;
41255;SDS011;26989;45.524;10.938;2023-05-27T08:00:13;4.93;;;3.40;;
41255;SDS011;26989;45.524;10.938;2023-05-27T08:02:43;12.90;;;8.60;;
41255;SDS011;26989;45.524;10.938;2023-05-27T08:05:15;5.82;;;3.97;;
41255;SDS011;26989;45.524;10.938;2023-05-27T08:07:42;5.55;;;3.50;;
41255;SDS011;26989;45.524;10.938;2023-05-27T08:10:09;5.72;;;2.97;;
41255;SDS011;26989;45.524;10.938;2023-05-27T08:12:36;5.38;;;3.58;;
41255;SDS011;26989;45.524;10.938;2023-05-27T08:15:05;5.20;;;3.30;;
41255;SDS011;26989;45.524;10.938;2023-05-27T08:17:32;4.70;;;3.28;;
41255;SDS011;26989;45.524;10.938;2023-05-27T08:19:59;3.85;;;3.17;;
41255;SDS011;26989;45.524;10.938;2023-05-27T08:22:26;5.93;;;2.97;;
41255;SDS011;26989;45.524;10.938;2023-05-27T08:24:54;6.63;;;3.50;;
41255;SDS011;26989;45.524;10.938;2023-05-27T08:27:41;5.22;;;3.30;;
41255;SDS011;26989;45.524;10.938;2023-05-27T08:30:14;6.53;;;3.67;;
41255;SDS011;26989;45.524;10.938;2023-05-27T08:32:41;5.65;;;3.90;;
41255;SDS011;26989;45.524;10.938;2023-05-27T08:35:15;6.22;;;4.28;;
41255;SDS011;26989;45.524;10.938;2023-05-27T08:37:43;7.50;;;4.50;;
41255;SDS011;26989;45.524;10.938;2023-05-27T08:40:16;7.10;;;4.20;;
41255;SDS011;26989;45.524;10.938;2023-05-27T08:42:45;7.40;;;4.47;;
41255;SDS011;26989;45.524;10.938;2023-05-27T08:45:18;8.65;;;4.85;;
41255;SDS011;26989;45.524;10.938;2023-05-27T08:47:45;4.85;;;4.15;;
41255;SDS011;26989;45.524;10.938;2023-05-27T08:50:14;8.80;;;4.13;;
41255;SDS011;26989;45.524;10.938;2023-05-27T08:52:46;4.90;;;4.35;;
41255;SDS011;26989;45.524;10.938;2023-05-27T08:55:16;6.57;;;4.80;;
41255;SDS011;26989;45.524;10.938;2023-05-27T08:57:51;7.65;;;4.88;;
41255;SDS011;26989;45.524;10.938;2023-05-27T09:00:22;24.13;;;9.60;;
41255;SDS011;26989;45.524;10.938;2023-05-27T09:02:50;11.02;;;6.18;;
41255;SDS011;26989;45.524;10.938;2023-05-27T09:05:22;9.35;;;4.78;;
41255;SDS011;26989;45.524;10.938;2023-05-27T09:07:53;8.45;;;5.10;;
41255;SDS011;26989;45.524;10.938;2023-05-27T09:10:23;14.00;;;5.30;;
41255;SDS011;26989;45.524;10.938;2023-05-27T09:13:05;15.00;;;6.18;;
41255;SDS011;26989;45.524;10.938;2023-05-27T09:15:33;9.32;;;5.45;;
41255;SDS011;26989;45.524;10.938;2023-05-27T09:18:05;7.38;;;5.55;;
41255;SDS011;26989;45.524;10.938;2023-05-27T09:20:35;11.07;;;5.45;;
41255;SDS011;26989;45.524;10.938;2023-05-27T09:23:03;8.48;;;6.07;;
41255;SDS011;26989;45.524;10.938;2023-05-27T09:25:30;7.88;;;5.55;;
41255;SDS011;26989;45.524;10.938;2023-05-27T09:27:57;8.88;;;5.35;;
41255;SDS011;26989;45.524;10.938;2023-05-27T09:30:24;24.75;;;7.75;;
41255;SDS011;26989;45.524;10.938;2023-05-27T09:33:03;15.60;;;7.15;;
41255;SDS011;26989;45.524;10.938;2023-05-27T09:35:36;9.37;;;5.17;;
41255;SDS011;26989;45.524;10.938;2023-05-27T09:38:14;8.88;;;4.93;;
41255;SDS011;26989;45.524;10.938;2023-05-27T09:40:47;9.73;;;4.93;;
41255;SDS011;26989;45.524;10.938;2023-05-27T09:43:15;7.18;;;5.15;;
41255;SDS011;26989;45.524;10.938;2023-05-27T09:45:42;10.23;;;5.10;;
41255;SDS011;26989;45.524;10.938;2023-05-27T09:48:11;7.63;;;4.78;;
41255;SDS011;26989;45.524;10.938;2023-05-27T09:50:42;7.88;;;5.18;;
41255;SDS011;26989;45.524;10.938;2023-05-27T09:53:09;7.70;;;5.38;;
41255;SDS011;26989;45.524;10.938;2023-05-27T09:55:38;7.97;;;5.20;;
41255;SDS011;26989;45.524;10.938;2023-05-27T09:58:06;5.97;;;5.28;;
41255;SDS011;26989;45.524;10.938;2023-05-27T10:00:38;7.10;;;4.75;;
41255;SDS011;26989;45.524;10.938;2023-05-27T10:03:22;6.97;;;4.78;;
41255;SDS011;26989;45.524;10.938;2023-05-27T10:05:55;7.40;;;4.90;;
41255;SDS011;26989;45.524;10.938;2023-05-27T10:08:22;7.20;;;4.90;;
41255;SDS011;26989;45.524;10.938;2023-05-27T10:10:52;9.90;;;4.80;;
41255;SDS011;26989;45.524;10.938;2023-05-27T10:13:20;9.38;;;5.00;;
41255;SDS011;26989;45.524;10.938;2023-05-27T10:15:51;7.47;;;5.03;;
41255;SDS011;26989;45.524;10.938;2023-05-27T10:18:25;6.28;;;4.88;;
41255;SDS011;26989;45.524;10.938;2023-05-27T10:20:55;5.63;;;4.65;;
41255;SDS011;26989;45.524;10.938;2023-05-27T10:23:24;7.10;;;4.93;;
41255;SDS011;26989;45.524;10.938;2023-05-27T10:25:56;6.28;;;4.72;;
41255;SDS011;26989;45.524;10.938;2023-05-27T10:28:31;7.43;;;5.75;;
41255;SDS011;26989;45.524;10.938;2023-05-27T10:31:14;7.32;;;4.57;;
41255;SDS011;26989;45.524;10.938;2023-05-27T10:33:43;10.00;;;5.20;;
41255;SDS011;26989;45.524;10.938;2023-05-27T10:36:14;6.47;;;5.13;;
41255;SDS011;26989;45.524;10.938;2023-05-27T10:38:41;7.50;;;5.50;;
41255;SDS011;26989;45.524;10.938;2023-05-27T10:41:09;9.35;;;5.45;;
41255;SDS011;26989;45.524;10.938;2023-05-27T10:43:36;6.95;;;4.63;;
41255;SDS011;26989;45.524;10.938;2023-05-27T10:48:38;10.23;;;5.35;;
41255;SDS011;26989;45.524;10.938;2023-05-27T10:51:08;5.80;;;4.67;;
41255;SDS011;26989;45.524;10.938;2023-05-27T10:53:35;7.72;;;4.80;;
41255;SDS011;26989;45.524;10.938;2023-05-27T10:56:03;5.63;;;4.80;;
41255;SDS011;26989;45.524;10.938;2023-05-27T10:58:33;6.38;;;4.68;;
41255;SDS011;26989;45.524;10.938;2023-05-27T11:01:10;8.10;;;5.00;;
41255;SDS011;26989;45.524;10.938;2023-05-27T11:03:43;8.02;;;5.03;;
41255;SDS011;26989;45.524;10.938;2023-05-27T11:06:12;6.60;;;4.57;;
41255;SDS011;26989;45.524;10.938;2023-05-27T11:08:41;5.57;;;4.32;;
41255;SDS011;26989;45.524;10.938;2023-05-27T11:11:09;8.75;;;5.05;;
41255;SDS011;26989;45.524;10.938;2023-05-27T11:13:44;5.72;;;4.40;;
41255;SDS011;26989;45.524;10.938;2023-05-27T11:16:14;6.10;;;4.30;;
41255;SDS011;26989;45.524;10.938;2023-05-27T11:18:56;6.32;;;3.80;;
41255;SDS011;26989;45.524;10.938;2023-05-27T11:21:23;5.13;;;3.65;;
41255;SDS011;26989;45.524;10.938;2023-05-27T11:23:50;6.80;;;3.80;;
41255;SDS011;26989;45.524;10.938;2023-05-27T11:26:18;4.32;;;2.92;;
41255;SDS011;26989;45.524;10.938;2023-05-27T11:28:57;5.30;;;3.63;;
41255;SDS011;26989;45.524;10.938;2023-05-27T11:31:27;6.88;;;3.30;;
41255;SDS011;26989;45.524;10.938;2023-05-27T11:33:56;4.50;;;3.60;;
41255;SDS011;26989;45.524;10.938;2023-05-27T11:36:27;4.00;;;3.10;;
41255;SDS011;26989;45.524;10.938;2023-05-27T11:38:58;4.90;;;3.25;;
41255;SDS011;26989;45.524;10.938;2023-05-27T11:41:35;7.35;;;3.22;;
41255;SDS011;26989;45.524;10.938;2023-05-27T11:44:06;4.50;;;3.00;;
41255;SDS011;26989;45.524;10.938;2023-05-27T11:49:02;6.00;;;3.50;;
41255;SDS011;26989;45.524;10.938;2023-05-27T11:51:36;5.10;;;2.97;;
41255;SDS011;26989;45.524;10.938;2023-05-27T11:54:04;4.75;;;3.63;;
41255;SDS011;26989;45.524;10.938;2023-05-27T11:56:41;6.85;;;3.13;;
41255;SDS011;26989;45.524;10.938;2023-05-27T11:59:22;3.55;;;2.90;;
41255;SDS011;26989;45.524;10.938;2023-05-27T12:01:50;5.47;;;3.35;;
41255;SDS011;26989;45.524;10.938;2023-05-27T12:04:20;4.00;;;3.03;;
41255;SDS011;26989;45.524;10.938;2023-05-27T12:06:47;4.53;;;3.15;;
41255;SDS011;26989;45.524;10.938;2023-05-27T12:09:14;4.95;;;4.38;;
41255;SDS011;26989;45.524;10.938;2023-05-27T12:11:41;5.47;;;4.00;;
41255;SDS011;26989;45.524;10.938;2023-05-27T12:14:11;7.63;;;4.75;;
41255;SDS011;26989;45.524;10.938;2023-05-27T12:16:38;8.52;;;4.97;;
41255;SDS011;26989;45.524;10.938;2023-05-27T12:19:05;5.93;;;4.90;;
41255;SDS011;26989;45.524;10.938;2023-05-27T12:21:32;7.75;;;5.45;;
41255;SDS011;26989;45.524;10.938;2023-05-27T12:24:00;6.82;;;4.93;;
41255;SDS011;26989;45.524;10.938;2023-05-27T12:26:31;6.43;;;5.07;;
41255;SDS011;26989;45.524;10.938;2023-05-27T12:29:02;8.55;;;5.28;;
41255;SDS011;26989;45.524;10.938;2023-05-27T12:31:31;8.15;;;4.95;;
41255;SDS011;26989;45.524;10.938;2023-05-27T12:33:58;8.30;;;5.22;;
41255;SDS011;26989;45.524;10.938;2023-05-27T12:36:26;6.15;;;5.20;;
41255;SDS011;26989;45.524;10.938;2023-05-27T12:38:52;8.98;;;4.97;;
41255;SDS011;26989;45.524;10.938;2023-05-27T12:41:22;9.23;;;4.80;;
41255;SDS011;26989;45.524;10.938;2023-05-27T12:43:50;7.00;;;5.55;;
41255;SDS011;26989;45.524;10.938;2023-05-27T12:46:18;7.20;;;5.22;;
41255;SDS011;26989;45.524;10.938;2023-05-27T12:48:45;7.15;;;4.95;;
41255;SDS011;26989;45.524;10.938;2023-05-27T12:51:13;7.97;;;5.05;;
41255;SDS011;26989;45.524;10.938;2023-05-27T12:53:40;7.55;;;4.85;;
41255;SDS011;26989;45.524;10.938;2023-05-27T12:56:22;9.70;;;5.10;;
41255;SDS011;26989;45.524;10.938;2023-05-27T12:58:49;9.13;;;5.25;;
41255;SDS011;26989;45.524;10.938;2023-05-27T13:01:17;8.60;;;5.43;;
41255;SDS011;26989;45.524;10.938;2023-05-27T13:03:44;9.02;;;5.43;;
41255;SDS011;26989;45.524;10.938;2023-05-27T13:06:11;8.35;;;5.38;;
41255;SDS011;26989;45.524;10.938;2023-05-27T13:08:38;7.68;;;5.30;;
41255;SDS011;26989;45.524;10.938;2023-05-27T13:11:05;10.10;;;5.70;;
41255;SDS011;26989;45.524;10.938;2023-05-27T13:13:32;8.65;;;5.40;;
41255;SDS011;26989;45.524;10.938;2023-05-27T13:15:59;9.85;;;5.90;;
41255;SDS011;26989;45.524;10.938;2023-05-27T13:18:27;8.00;;;5.50;;
41255;SDS011;26989;45.524;10.938;2023-05-27T13:20:54;5.95;;;5.10;;
41255;SDS011;26989;45.524;10.938;2023-05-27T13:23:21;7.88;;;5.70;;
41255;SDS011;26989;45.524;10.938;2023-05-27T13:25:48;6.38;;;5.03;;
41255;SDS011;26989;45.524;10.938;2023-05-27T13:28:15;7.82;;;5.55;;
41255;SDS011;26989;45.524;10.938;2023-05-27T13:30:43;6.88;;;5.10;;
41255;SDS011;26989;45.524;10.938;2023-05-27T13:33:10;7.88;;;5.03;;
41255;SDS011;26989;45.524;10.938;2023-05-27T13:35:37;8.00;;;5.95;;
41255;SDS011;26989;45.524;10.938;2023-05-27T13:38:04;7.82;;;5.22;;
41255;SDS011;26989;45.524;10.938;2023-05-27T13:40:32;7.15;;;4.95;;
41255;SDS011;26989;45.524;10.938;2023-05-27T13:42:59;7.78;;;5.00;;
41255;SDS011;26989;45.524;10.938;2023-05-27T13:45:26;7.85;;;5.80;;
41255;SDS011;26989;45.524;10.938;2023-05-27T13:47:53;9.20;;;5.07;;
41255;SDS011;26989;45.524;10.938;2023-05-27T13:50:22;7.60;;;5.03;;
41255;SDS011;26989;45.524;10.938;2023-05-27T13:52:49;9.68;;;5.00;;
41255;SDS011;26989;45.524;10.938;2023-05-27T13:55:16;6.85;;;4.93;;
41255;SDS011;26989;45.524;10.938;2023-05-27T13:57:43;9.32;;;5.20;;
41255;SDS011;26989;45.524;10.938;2023-05-27T14:00:10;6.75;;;5.15;;
41255;SDS011;26989;45.524;10.938;2023-05-27T14:02:38;9.27;;;5.20;;
41255;SDS011;26989;45.524;10.938;2023-05-27T14:05:05;9.18;;;5.13;;
41255;SDS011;26989;45.524;10.938;2023-05-27T14:07:33;7.72;;;5.38;;
41255;SDS011;26989;45.524;10.938;2023-05-27T14:10:06;7.03;;;5.00;;
41255;SDS011;26989;45.524;10.938;2023-05-27T14:12:34;7.43;;;5.07;;
41255;SDS011;26989;45.524;10.938;2023-05-27T14:15:01;8.18;;;5.18;;
41255;SDS011;26989;45.524;10.938;2023-05-27T14:17:27;9.35;;;4.97;;
41255;SDS011;26989;45.524;10.938;2023-05-27T14:19:56;8.30;;;5.00;;
41255;SDS011;26989;45.524;10.938;2023-05-27T14:22:26;8.90;;;5.63;;
41255;SDS011;26989;45.524;10.938;2023-05-27T14:24:53;8.35;;;5.28;;
41255;SDS011;26989;45.524;10.938;2023-05-27T14:27:21;7.32;;;5.50;;
41255;SDS011;26989;45.524;10.938;2023-05-27T14:29:48;8.95;;;5.47;;
41255;SDS011;26989;45.524;10.938;2023-05-27T14:32:14;7.65;;;4.82;;
41255;SDS011;26989;45.524;10.938;2023-05-27T14:34:41;7.60;;;5.22;;
41255;SDS011;26989;45.524;10.938;2023-05-27T14:37:09;9.88;;;5.15;;
41255;SDS011;26989;45.524;10.938;2023-05-27T14:39:36;6.28;;;5.05;;
41255;SDS011;26989;45.524;10.938;2023-05-27T14:42:03;6.47;;;5.15;;
41255;SDS011;26989;45.524;10.938;2023-05-27T14:44:34;9.38;;;5.18;;
41255;SDS011;26989;45.524;10.938;2023-05-27T14:47:02;8.23;;;5.32;;
41255;SDS011;26989;45.524;10.938;2023-05-27T14:49:29;9.00;;;5.20;;
41255;SDS011;26989;45.524;10.938;2023-05-27T14:51:57;8.60;;;5.03;;
41255;SDS011;26989;45.524;10.938;2023-05-27T14:54:24;10.10;;;5.35;;
41255;SDS011;26989;45.524;10.938;2023-05-27T14:56:51;8.43;;;6.10;;